Ibia, Brazil
Current Conditions -  °F | °C
As of 10:00 AM on Friday 24 Oct 2014 (Local Time) from SBUR Reporting Station
Light Rain Light Rain  
Wind Chill: 68°   Ceiling: 8000
Heat Index: 68°   Visibility: 3mi
Dew Point: 64°   Wind: 9mph
Humidity: 88%   Direction: 80°E
Pressure: 30.09"   Gusts: NA
Location:  19.48°S, 46.54°W
Report Text: SBUR 241200Z 08008KT 5000 -RA BR SCT030 FEW040TCU BKN080 20/18 Q1019 RETS
Loading
Personal Weather Stations






























Interactive Weather Map
Tropical Storm Tracking
New forecast layout! Learn more

10-Day Weather Forecast

Advertisements
Track Severe Weather on mobile